Terminal Aerodrome Forecast
Issued by NWS Sioux Falls, SD

Home | Current Version | Previous Version | Text Only | Print | Product List | Glossary On
Versions: 1 2 3 4 5 6 7 8 9 10 11 12 13 14 15
000
FTUS43 KFSD 132300
TAFHON
TAF
KHON 132339Z 1400/1424 36022G33KT P6SM OVC200
     FM140200 36017G26KT P6SM BKN200
     FM140700 34011KT P6SM BKN200
     FM141600 33015G23KT P6SM BKN050=

USA.gov is the U.S. government's official web portal to all federal, state and local government web resources and services.